sensor_id;sensor_type;location;lat;lon;timestamp;pressure;altitude;pressure_sealevel;temperature;humidity
64404;BME280;50726;54.912;-8.392;2022-12-10T00:01:23;100184.38;;;28.50;31.83
64404;BME280;50726;54.912;-8.392;2022-12-10T00:03:49;100172.25;;;28.03;32.40
64404;BME280;50726;54.912;-8.392;2022-12-10T00:06:20;100176.72;;;28.63;32.09
64404;BME280;50726;54.912;-8.392;2022-12-10T00:08:46;100173.31;;;28.53;32.28
64404;BME280;50726;54.912;-8.392;2022-12-10T00:11:13;100177.69;;;28.54;32.80
64404;BME280;50726;54.912;-8.392;2022-12-10T00:13:40;100167.22;;;28.34;32.33
64404;BME280;50726;54.912;-8.392;2022-12-10T00:16:09;100167.06;;;27.56;33.46
64404;BME280;50726;54.912;-8.392;2022-12-10T00:18:36;100155.34;;;27.57;33.07
64404;BME280;50726;54.912;-8.392;2022-12-10T00:21:07;100158.69;;;28.12;32.71
64404;BME280;50726;54.912;-8.392;2022-12-10T00:23:33;100163.94;;;26.98;33.86
64404;BME280;50726;54.912;-8.392;2022-12-10T00:26:11;100150.53;;;28.90;32.66
64404;BME280;50726;54.912;-8.392;2022-12-10T00:28:38;100141.53;;;27.52;33.54
64404;BME280;50726;54.912;-8.392;2022-12-10T00:31:06;100161.31;;;29.32;32.41
64404;BME280;50726;54.912;-8.392;2022-12-10T00:33:33;100174.78;;;26.32;33.95
64404;BME280;50726;54.912;-8.392;2022-12-10T00:36:09;100180.22;;;27.59;32.88
64404;BME280;50726;54.912;-8.392;2022-12-10T00:38:36;100179.78;;;25.30;36.32
64404;BME280;50726;54.912;-8.392;2022-12-10T00:41:02;100184.72;;;25.54;35.76
64404;BME280;50726;54.912;-8.392;2022-12-10T00:43:28;100192.50;;;24.57;36.90
64404;BME280;50726;54.912;-8.392;2022-12-10T00:45:54;100182.34;;;24.51;37.79
64404;BME280;50726;54.912;-8.392;2022-12-10T00:48:21;100186.91;;;26.36;35.43
64404;BME280;50726;54.912;-8.392;2022-12-10T00:50:58;100176.75;;;27.94;33.46
64404;BME280;50726;54.912;-8.392;2022-12-10T00:53:25;100171.47;;;28.19;33.85
64404;BME280;50726;54.912;-8.392;2022-12-10T00:55:52;100180.50;;;28.09;32.78
64404;BME280;50726;54.912;-8.392;2022-12-10T00:58:18;100183.97;;;27.67;33.05
64404;BME280;50726;54.912;-8.392;2022-12-10T01:00:43;100179.84;;;27.81;33.19
64404;BME280;50726;54.912;-8.392;2022-12-10T01:03:09;100189.16;;;27.05;33.55
64404;BME280;50726;54.912;-8.392;2022-12-10T01:05:35;100185.50;;;26.78;33.67
64404;BME280;50726;54.912;-8.392;2022-12-10T01:08:00;100177.16;;;27.81;33.03
64404;BME280;50726;54.912;-8.392;2022-12-10T01:10:26;100179.50;;;27.13;33.39
64404;BME280;50726;54.912;-8.392;2022-12-10T01:12:52;100184.59;;;28.65;33.04
64404;BME280;50726;54.912;-8.392;2022-12-10T01:15:17;100193.81;;;27.84;32.95
64404;BME280;50726;54.912;-8.392;2022-12-10T01:17:44;100204.53;;;26.85;34.06
64404;BME280;50726;54.912;-8.392;2022-12-10T01:20:10;100202.59;;;26.77;34.79
64404;BME280;50726;54.912;-8.392;2022-12-10T01:22:37;100185.25;;;27.63;34.54
64404;BME280;50726;54.912;-8.392;2022-12-10T01:25:04;100187.56;;;27.57;33.87
64404;BME280;50726;54.912;-8.392;2022-12-10T01:27:29;100179.84;;;26.81;33.85
64404;BME280;50726;54.912;-8.392;2022-12-10T01:29:55;100186.72;;;26.38;34.75
64404;BME280;50726;54.912;-8.392;2022-12-10T01:32:21;100177.56;;;27.94;33.70
64404;BME280;50726;54.912;-8.392;2022-12-10T01:34:47;100172.91;;;27.52;33.30
64404;BME280;50726;54.912;-8.392;2022-12-10T01:37:12;100172.53;;;27.91;32.63
64404;BME280;50726;54.912;-8.392;2022-12-10T01:39:38;100177.91;;;27.91;32.84
64404;BME280;50726;54.912;-8.392;2022-12-10T01:42:05;100177.06;;;27.64;33.43
64404;BME280;50726;54.912;-8.392;2022-12-10T01:46:59;100168.22;;;27.72;33.80
64404;BME280;50726;54.912;-8.392;2022-12-10T01:49:34;100176.06;;;28.78;32.82
64404;BME280;50726;54.912;-8.392;2022-12-10T01:52:00;100179.22;;;24.36;36.38
64404;BME280;50726;54.912;-8.392;2022-12-10T01:54:33;100177.03;;;25.89;35.08
64404;BME280;50726;54.912;-8.392;2022-12-10T01:57:08;100155.22;;;26.86;33.99
64404;BME280;50726;54.912;-8.392;2022-12-10T01:59:36;100161.00;;;27.72;32.36
64404;BME280;50726;54.912;-8.392;2022-12-10T02:04:58;100152.72;;;28.27;32.76
64404;BME280;50726;54.912;-8.392;2022-12-10T02:13:18;100169.06;;;27.10;32.66
64404;BME280;50726;54.912;-8.392;2022-12-10T02:16:02;100166.91;;;26.95;32.70
64404;BME280;50726;54.912;-8.392;2022-12-10T02:18:55;100149.09;;;27.75;32.39
64404;BME280;50726;54.912;-8.392;2022-12-10T02:21:28;100153.06;;;28.24;32.66
64404;BME280;50726;54.912;-8.392;2022-12-10T02:24:00;100150.63;;;28.64;32.50
64404;BME280;50726;54.912;-8.392;2022-12-10T02:26:45;100147.22;;;29.95;31.41
64404;BME280;50726;54.912;-8.392;2022-12-10T02:29:17;100153.00;;;28.84;31.97
64404;BME280;50726;54.912;-8.392;2022-12-10T02:34:34;100149.25;;;28.08;32.81
64404;BME280;50726;54.912;-8.392;2022-12-10T02:37:04;100154.22;;;27.42;33.29
64404;BME280;50726;54.912;-8.392;2022-12-10T02:39:36;100161.00;;;27.54;32.81
64404;BME280;50726;54.912;-8.392;2022-12-10T02:42:04;100161.81;;;24.51;36.45
64404;BME280;50726;54.912;-8.392;2022-12-10T02:44:33;100178.69;;;24.52;36.94
64404;BME280;50726;54.912;-8.392;2022-12-10T02:47:02;100169.66;;;25.24;36.24
64404;BME280;50726;54.912;-8.392;2022-12-10T02:49:29;100184.91;;;27.21;34.36
64404;BME280;50726;54.912;-8.392;2022-12-10T02:51:55;100175.50;;;26.99;33.67
64404;BME280;50726;54.912;-8.392;2022-12-10T02:57:23;100177.13;;;27.54;33.47
64404;BME280;50726;54.912;-8.392;2022-12-10T03:05:33;100155.91;;;29.57;31.98
64404;BME280;50726;54.912;-8.392;2022-12-10T03:13:49;100127.25;;;24.89;36.37
64404;BME280;50726;54.912;-8.392;2022-12-10T03:16:17;100121.53;;;23.71;38.71
64404;BME280;50726;54.912;-8.392;2022-12-10T03:18:44;100122.88;;;23.55;40.07
64404;BME280;50726;54.912;-8.392;2022-12-10T03:21:12;100130.16;;;24.06;39.89
64404;BME280;50726;54.912;-8.392;2022-12-10T03:23:43;100119.31;;;22.91;41.64
64404;BME280;50726;54.912;-8.392;2022-12-10T03:26:11;100118.66;;;21.52;43.86
64404;BME280;50726;54.912;-8.392;2022-12-10T03:28:50;100116.97;;;22.65;42.54
64404;BME280;50726;54.912;-8.392;2022-12-10T03:31:18;100134.19;;;26.17;37.75
64404;BME280;50726;54.912;-8.392;2022-12-10T03:33:46;100132.75;;;25.85;36.39
64404;BME280;50726;54.912;-8.392;2022-12-10T03:36:15;100136.00;;;24.91;37.22
64404;BME280;50726;54.912;-8.392;2022-12-10T03:38:42;100133.56;;;26.98;35.48
64404;BME280;50726;54.912;-8.392;2022-12-10T03:41:08;100141.75;;;27.14;34.20
64404;BME280;50726;54.912;-8.392;2022-12-10T03:43:34;100144.06;;;28.15;33.17
64404;BME280;50726;54.912;-8.392;2022-12-10T03:46:00;100145.56;;;27.56;33.27
64404;BME280;50726;54.912;-8.392;2022-12-10T03:48:26;100149.06;;;28.36;32.27
64404;BME280;50726;54.912;-8.392;2022-12-10T03:50:52;100142.06;;;29.77;32.26
64404;BME280;50726;54.912;-8.392;2022-12-10T03:53:18;100149.50;;;28.83;32.62
64404;BME280;50726;54.912;-8.392;2022-12-10T03:55:44;100143.38;;;29.89;31.50
64404;BME280;50726;54.912;-8.392;2022-12-10T03:58:09;100140.69;;;29.89;31.25
64404;BME280;50726;54.912;-8.392;2022-12-10T04:00:35;100144.59;;;30.26;31.42
64404;BME280;50726;54.912;-8.392;2022-12-10T04:03:01;100142.28;;;29.33;31.62
64404;BME280;50726;54.912;-8.392;2022-12-10T04:05:26;100145.00;;;29.08;31.78
64404;BME280;50726;54.912;-8.392;2022-12-10T04:07:52;100139.00;;;27.69;33.22
64404;BME280;50726;54.912;-8.392;2022-12-10T04:10:18;100149.09;;;28.53;32.82
64404;BME280;50726;54.912;-8.392;2022-12-10T04:12:44;100140.94;;;29.54;32.36
64404;BME280;50726;54.912;-8.392;2022-12-10T04:15:30;100141.00;;;29.94;31.98
64404;BME280;50726;54.912;-8.392;2022-12-10T04:18:14;100130.19;;;30.11;31.52
64404;BME280;50726;54.912;-8.392;2022-12-10T04:20:39;100139.44;;;28.93;31.58
64404;BME280;50726;54.912;-8.392;2022-12-10T04:23:23;100134.94;;;27.65;33.08
64404;BME280;50726;54.912;-8.392;2022-12-10T04:26:08;100139.53;;;28.59;32.49
64404;BME280;50726;54.912;-8.392;2022-12-10T04:28:52;100136.66;;;26.00;35.25
64404;BME280;50726;54.912;-8.392;2022-12-10T04:31:17;100123.78;;;24.38;37.70
64404;BME280;50726;54.912;-8.392;2022-12-10T04:33:43;100119.50;;;25.93;36.45
64404;BME280;50726;54.912;-8.392;2022-12-10T04:36:09;100120.06;;;25.19;37.21
64404;BME280;50726;54.912;-8.392;2022-12-10T04:38:34;100121.78;;;25.20;36.86
64404;BME280;50726;54.912;-8.392;2022-12-10T04:41:00;100120.03;;;25.97;36.48
64404;BME280;50726;54.912;-8.392;2022-12-10T04:43:26;100125.69;;;28.02;34.57
64404;BME280;50726;54.912;-8.392;2022-12-10T04:45:55;100129.91;;;25.96;35.59
64404;BME280;50726;54.912;-8.392;2022-12-10T04:48:21;100137.44;;;25.83;36.84
64404;BME280;50726;54.912;-8.392;2022-12-10T04:50:46;100118.09;;;25.89;36.32
64404;BME280;50726;54.912;-8.392;2022-12-10T04:53:12;100100.28;;;24.32;39.04
64404;BME280;50726;54.912;-8.392;2022-12-10T04:55:38;100107.81;;;23.12;40.57
64404;BME280;50726;54.912;-8.392;2022-12-10T04:58:03;100091.09;;;22.44;41.88
64404;BME280;50726;54.912;-8.392;2022-12-10T05:00:29;100088.91;;;21.58;43.63
64404;BME280;50726;54.912;-8.392;2022-12-10T05:02:55;100100.81;;;22.11;43.86
64404;BME280;50726;54.912;-8.392;2022-12-10T05:05:20;100099.22;;;22.20;43.54
64404;BME280;50726;54.912;-8.392;2022-12-10T05:07:46;100097.84;;;22.60;42.50
64404;BME280;50726;54.912;-8.392;2022-12-10T05:10:12;100101.16;;;24.01;40.24
64404;BME280;50726;54.912;-8.392;2022-12-10T05:12:37;100106.13;;;23.53;40.20
64404;BME280;50726;54.912;-8.392;2022-12-10T05:15:03;100121.53;;;25.71;37.72
64404;BME280;50726;54.912;-8.392;2022-12-10T05:17:29;100125.66;;;26.32;37.42
64404;BME280;50726;54.912;-8.392;2022-12-10T05:19:55;100122.06;;;27.05;34.99
64404;BME280;50726;54.912;-8.392;2022-12-10T05:22:20;100113.19;;;27.84;35.43
64404;BME280;50726;54.912;-8.392;2022-12-10T05:25:04;100103.94;;;27.79;34.12
64404;BME280;50726;54.912;-8.392;2022-12-10T05:27:32;100098.88;;;26.50;35.58
64404;BME280;50726;54.912;-8.392;2022-12-10T05:29:58;100101.16;;;25.60;36.66
64404;BME280;50726;54.912;-8.392;2022-12-10T05:32:24;100087.94;;;28.12;33.88
64404;BME280;50726;54.912;-8.392;2022-12-10T05:34:49;100092.72;;;27.92;33.41
64404;BME280;50726;54.912;-8.392;2022-12-10T05:37:15;100095.34;;;28.70;33.13
64404;BME280;50726;54.912;-8.392;2022-12-10T05:39:41;100106.19;;;26.01;34.71
64404;BME280;50726;54.912;-8.392;2022-12-10T05:42:06;100106.56;;;26.63;34.67
64404;BME280;50726;54.912;-8.392;2022-12-10T05:44:32;100105.63;;;27.08;34.63
64404;BME280;50726;54.912;-8.392;2022-12-10T05:46:58;100103.84;;;28.32;33.05
64404;BME280;50726;54.912;-8.392;2022-12-10T05:49:23;100111.00;;;27.53;33.83
64404;BME280;50726;54.912;-8.392;2022-12-10T05:51:49;100109.53;;;26.60;33.94
64404;BME280;50726;54.912;-8.392;2022-12-10T05:54:14;100110.59;;;28.09;33.18
64404;BME280;50726;54.912;-8.392;2022-12-10T05:56:40;100109.56;;;28.02;33.14
64404;BME280;50726;54.912;-8.392;2022-12-10T05:59:06;100114.16;;;27.22;33.32
64404;BME280;50726;54.912;-8.392;2022-12-10T06:01:34;100110.16;;;27.79;33.79
64404;BME280;50726;54.912;-8.392;2022-12-10T06:04:02;100114.84;;;28.72;32.52
64404;BME280;50726;54.912;-8.392;2022-12-10T06:06:30;100111.59;;;28.00;33.18
64404;BME280;50726;54.912;-8.392;2022-12-10T06:08:57;100118.16;;;27.00;34.04
64404;BME280;50726;54.912;-8.392;2022-12-10T06:11:23;100124.94;;;26.58;34.23
64404;BME280;50726;54.912;-8.392;2022-12-10T06:13:50;100112.25;;;27.94;33.60
64404;BME280;50726;54.912;-8.392;2022-12-10T06:16:15;100108.25;;;28.66;32.83
64404;BME280;50726;54.912;-8.392;2022-12-10T06:18:41;100107.19;;;28.42;32.31
64404;BME280;50726;54.912;-8.392;2022-12-10T06:21:10;100111.22;;;27.86;33.59
64404;BME280;50726;54.912;-8.392;2022-12-10T06:23:38;100119.97;;;26.63;33.94
64404;BME280;50726;54.912;-8.392;2022-12-10T06:26:09;100129.69;;;25.80;35.45
64404;BME280;50726;54.912;-8.392;2022-12-10T06:28:35;100135.47;;;27.05;34.51
64404;BME280;50726;54.912;-8.392;2022-12-10T06:31:01;100145.75;;;24.42;37.05
64404;BME280;50726;54.912;-8.392;2022-12-10T06:33:27;100140.09;;;27.13;34.32
64404;BME280;50726;54.912;-8.392;2022-12-10T06:35:52;100132.03;;;27.58;33.19
64404;BME280;50726;54.912;-8.392;2022-12-10T06:38:18;100131.44;;;27.72;32.85
64404;BME280;50726;54.912;-8.392;2022-12-10T06:40:44;100130.88;;;28.30;31.70
64404;BME280;50726;54.912;-8.392;2022-12-10T06:43:09;100144.53;;;28.53;31.93
64404;BME280;50726;54.912;-8.392;2022-12-10T06:45:39;100133.50;;;28.73;31.78
64404;BME280;50726;54.912;-8.392;2022-12-10T06:48:06;100141.84;;;28.45;32.33
64404;BME280;50726;54.912;-8.392;2022-12-10T06:50:34;100131.28;;;28.52;32.35
64404;BME280;50726;54.912;-8.392;2022-12-10T06:53:00;100134.41;;;29.07;31.82
64404;BME280;50726;54.912;-8.392;2022-12-10T06:55:25;100132.47;;;28.58;31.86
64404;BME280;50726;54.912;-8.392;2022-12-10T06:57:52;100132.03;;;27.13;33.36
64404;BME280;50726;54.912;-8.392;2022-12-10T07:00:18;100137.47;;;27.66;32.43
64404;BME280;50726;54.912;-8.392;2022-12-10T07:02:45;100131.28;;;26.00;33.81
64404;BME280;50726;54.912;-8.392;2022-12-10T07:05:11;100130.34;;;28.86;31.42
64404;BME280;50726;54.912;-8.392;2022-12-10T07:07:37;100127.72;;;28.00;32.21
64404;BME280;50726;54.912;-8.392;2022-12-10T07:10:04;100126.47;;;30.04;31.18
64404;BME280;50726;54.912;-8.392;2022-12-10T07:12:29;100130.84;;;29.06;30.89
64404;BME280;50726;54.912;-8.392;2022-12-10T07:14:55;100128.16;;;27.87;32.74
64404;BME280;50726;54.912;-8.392;2022-12-10T07:17:21;100124.59;;;27.78;31.23
64404;BME280;50726;54.912;-8.392;2022-12-10T07:19:46;100136.47;;;28.37;31.88
64404;BME280;50726;54.912;-8.392;2022-12-10T07:22:12;100142.84;;;28.01;32.16
64404;BME280;50726;54.912;-8.392;2022-12-10T07:24:38;100146.03;;;29.07;30.92
64404;BME280;50726;54.912;-8.392;2022-12-10T07:27:08;100156.06;;;31.07;29.75
64404;BME280;50726;54.912;-8.392;2022-12-10T07:29:34;100157.25;;;29.03;30.06
64404;BME280;50726;54.912;-8.392;2022-12-10T07:32:00;100152.16;;;27.36;32.87
64404;BME280;50726;54.912;-8.392;2022-12-10T07:34:26;100159.69;;;27.14;33.37
64404;BME280;50726;54.912;-8.392;2022-12-10T07:36:52;100154.75;;;28.93;31.73
64404;BME280;50726;54.912;-8.392;2022-12-10T07:39:17;100152.59;;;28.02;31.61
64404;BME280;50726;54.912;-8.392;2022-12-10T07:41:50;100160.66;;;29.13;30.91
64404;BME280;50726;54.912;-8.392;2022-12-10T07:44:22;100162.41;;;27.85;31.95
64404;BME280;50726;54.912;-8.392;2022-12-10T07:46:49;100166.22;;;27.29;32.94
64404;BME280;50726;54.912;-8.392;2022-12-10T07:49:15;100159.59;;;26.69;33.29
64404;BME280;50726;54.912;-8.392;2022-12-10T07:51:46;100150.09;;;26.29;33.93
64404;BME280;50726;54.912;-8.392;2022-12-10T07:54:12;100161.06;;;25.10;35.33
64404;BME280;50726;54.912;-8.392;2022-12-10T07:56:38;100149.13;;;25.82;34.42
64404;BME280;50726;54.912;-8.392;2022-12-10T07:59:04;100154.88;;;25.97;34.21
64404;BME280;50726;54.912;-8.392;2022-12-10T08:01:30;100148.66;;;26.80;33.39
64404;BME280;50726;54.912;-8.392;2022-12-10T08:03:56;100145.91;;;27.08;33.41
64404;BME280;50726;54.912;-8.392;2022-12-10T08:06:24;100131.69;;;27.87;32.85
64404;BME280;50726;54.912;-8.392;2022-12-10T08:08:50;100135.41;;;26.97;33.13
64404;BME280;50726;54.912;-8.392;2022-12-10T08:11:18;100135.00;;;26.18;34.27
64404;BME280;50726;54.912;-8.392;2022-12-10T08:13:46;100149.47;;;26.07;34.38
64404;BME280;50726;54.912;-8.392;2022-12-10T08:16:21;100140.09;;;25.83;34.17
64404;BME280;50726;54.912;-8.392;2022-12-10T08:18:58;100148.31;;;26.84;33.16
64404;BME280;50726;54.912;-8.392;2022-12-10T08:21:27;100152.28;;;28.05;32.76
64404;BME280;50726;54.912;-8.392;2022-12-10T08:23:54;100156.75;;;28.31;33.15
64404;BME280;50726;54.912;-8.392;2022-12-10T08:26:22;100161.50;;;29.14;32.34
64404;BME280;50726;54.912;-8.392;2022-12-10T08:28:51;100159.78;;;29.29;31.75
64404;BME280;50726;54.912;-8.392;2022-12-10T08:31:18;100159.59;;;27.42;32.72
64404;BME280;50726;54.912;-8.392;2022-12-10T08:33:44;100147.19;;;27.23;32.26
64404;BME280;50726;54.912;-8.392;2022-12-10T08:36:12;100155.03;;;27.87;32.15
64404;BME280;50726;54.912;-8.392;2022-12-10T08:38:39;100158.16;;;27.11;33.60
64404;BME280;50726;54.912;-8.392;2022-12-10T08:41:13;100159.66;;;29.23;32.39
64404;BME280;50726;54.912;-8.392;2022-12-10T08:43:40;100162.28;;;28.81;32.06
64404;BME280;50726;54.912;-8.392;2022-12-10T08:46:07;100162.84;;;28.41;32.51
64404;BME280;50726;54.912;-8.392;2022-12-10T08:48:33;100162.25;;;28.64;31.58
64404;BME280;50726;54.912;-8.392;2022-12-10T08:51:00;100161.72;;;28.18;32.68
64404;BME280;50726;54.912;-8.392;2022-12-10T08:53:27;100168.56;;;28.12;32.50
64404;BME280;50726;54.912;-8.392;2022-12-10T08:55:53;100167.88;;;28.45;32.46
64404;BME280;50726;54.912;-8.392;2022-12-10T08:58:20;100173.47;;;28.60;31.12
64404;BME280;50726;54.912;-8.392;2022-12-10T09:00:48;100165.00;;;27.50;31.15
64404;BME280;50726;54.912;-8.392;2022-12-10T09:03:14;100174.41;;;25.69;33.46
64404;BME280;50726;54.912;-8.392;2022-12-10T09:05:41;100180.28;;;26.77;33.69
64404;BME280;50726;54.912;-8.392;2022-12-10T09:08:07;100182.00;;;26.78;33.01
64404;BME280;50726;54.912;-8.392;2022-12-10T09:10:33;100185.97;;;25.50;33.02
64404;BME280;50726;54.912;-8.392;2022-12-10T09:13:00;100189.41;;;26.38;32.68
64404;BME280;50726;54.912;-8.392;2022-12-10T09:15:25;100190.66;;;27.26;32.23
64404;BME280;50726;54.912;-8.392;2022-12-10T09:17:51;100183.88;;;28.11;33.00
64404;BME280;50726;54.912;-8.392;2022-12-10T09:20:17;100192.06;;;26.94;33.38
64404;BME280;50726;54.912;-8.392;2022-12-10T09:22:43;100175.16;;;26.84;33.19
64404;BME280;50726;54.912;-8.392;2022-12-10T09:25:09;100184.03;;;26.38;33.91
64404;BME280;50726;54.912;-8.392;2022-12-10T09:27:41;100192.34;;;27.64;33.97
64404;BME280;50726;54.912;-8.392;2022-12-10T09:30:07;100191.50;;;28.67;32.77
64404;BME280;50726;54.912;-8.392;2022-12-10T09:32:33;100191.38;;;27.10;31.72
64404;BME280;50726;54.912;-8.392;2022-12-10T09:34:59;100192.06;;;26.66;32.15
64404;BME280;50726;54.912;-8.392;2022-12-10T09:37:24;100202.81;;;26.38;34.01
64404;BME280;50726;54.912;-8.392;2022-12-10T09:39:51;100209.34;;;24.99;33.86
64404;BME280;50726;54.912;-8.392;2022-12-10T09:53:33;100224.78;;;26.51;34.21
64404;BME280;50726;54.912;-8.392;2022-12-10T09:56:03;100232.94;;;27.24;33.97
64404;BME280;50726;54.912;-8.392;2022-12-10T09:58:30;100226.16;;;28.27;33.49
64404;BME280;50726;54.912;-8.392;2022-12-10T10:01:04;100231.03;;;28.67;33.19
64404;BME280;50726;54.912;-8.392;2022-12-10T10:03:40;100233.84;;;29.42;32.57
64404;BME280;50726;54.912;-8.392;2022-12-10T10:06:11;100230.63;;;28.53;32.96
64404;BME280;50726;54.912;-8.392;2022-12-10T10:08:50;100233.13;;;30.06;31.65
64404;BME280;50726;54.912;-8.392;2022-12-10T10:11:18;100242.97;;;28.64;32.15
64404;BME280;50726;54.912;-8.392;2022-12-10T10:16:25;100252.72;;;28.04;32.56
64404;BME280;50726;54.912;-8.392;2022-12-10T10:19:06;100252.22;;;29.30;32.48
64404;BME280;50726;54.912;-8.392;2022-12-10T10:21:42;100257.53;;;28.53;32.16
64404;BME280;50726;54.912;-8.392;2022-12-10T10:24:13;100260.06;;;28.90;33.34
64404;BME280;50726;54.912;-8.392;2022-12-10T10:26:39;100260.63;;;28.06;31.92
64404;BME280;50726;54.912;-8.392;2022-12-10T10:29:08;100254.94;;;27.82;33.17
64404;BME280;50726;54.912;-8.392;2022-12-10T10:31:39;100245.81;;;25.00;36.00
64404;BME280;50726;54.912;-8.392;2022-12-10T10:34:18;100246.72;;;25.59;34.68
64404;BME280;50726;54.912;-8.392;2022-12-10T10:36:44;100236.47;;;27.25;32.85
64404;BME280;50726;54.912;-8.392;2022-12-10T10:41:52;100241.34;;;26.65;33.39
64404;BME280;50726;54.912;-8.392;2022-12-10T10:44:23;100238.22;;;27.34;33.23
64404;BME280;50726;54.912;-8.392;2022-12-10T10:46:52;100223.88;;;28.14;32.94
64404;BME280;50726;54.912;-8.392;2022-12-10T10:49:25;100234.16;;;26.37;33.90
64404;BME280;50726;54.912;-8.392;2022-12-10T10:52:11;100233.84;;;27.33;33.33
64404;BME280;50726;54.912;-8.392;2022-12-10T10:54:41;100234.81;;;27.50;33.10
64404;BME280;50726;54.912;-8.392;2022-12-10T10:57:32;100246.81;;;25.09;34.97
64404;BME280;50726;54.912;-8.392;2022-12-10T11:02:38;100247.84;;;25.77;35.41
64404;BME280;50726;54.912;-8.392;2022-12-10T11:07:45;100231.28;;;28.47;33.51
64404;BME280;50726;54.912;-8.392;2022-12-10T11:12:45;100250.19;;;29.24;33.12
64404;BME280;50726;54.912;-8.392;2022-12-10T11:15:28;100258.56;;;30.04;32.75
64404;BME280;50726;54.912;-8.392;2022-12-10T11:17:55;100253.53;;;29.17;31.91
64404;BME280;50726;54.912;-8.392;2022-12-10T11:20:33;100256.41;;;29.07;32.65
64404;BME280;50726;54.912;-8.392;2022-12-10T11:23:09;100250.88;;;29.42;32.49
64404;BME280;50726;54.912;-8.392;2022-12-10T11:31:33;100252.91;;;29.57;32.77
64404;BME280;50726;54.912;-8.392;2022-12-10T11:37:27;100247.59;;;26.08;36.73
64404;BME280;50726;54.912;-8.392;2022-12-10T11:40:27;100240.84;;;26.79;36.17
64404;BME280;50726;54.912;-8.392;2022-12-10T11:51:07;100220.28;;;28.32;34.49
64404;BME280;50726;54.912;-8.392;2022-12-10T11:53:45;100230.56;;;30.21;32.84
64404;BME280;50726;54.912;-8.392;2022-12-10T11:56:27;100235.00;;;30.14;33.80
64404;BME280;50726;54.912;-8.392;2022-12-10T11:59:21;100242.44;;;29.37;33.45
64404;BME280;50726;54.912;-8.392;2022-12-10T12:05:14;100244.13;;;27.56;35.48
64404;BME280;50726;54.912;-8.392;2022-12-10T12:08:02;100248.06;;;28.14;35.69
64404;BME280;50726;54.912;-8.392;2022-12-10T12:10:58;100248.66;;;29.87;34.05
64404;BME280;50726;54.912;-8.392;2022-12-10T12:13:34;100242.75;;;29.09;33.57
64404;BME280;50726;54.912;-8.392;2022-12-10T12:19:13;100236.19;;;30.03;32.91
64404;BME280;50726;54.912;-8.392;2022-12-10T12:21:43;100245.66;;;29.66;33.71
64404;BME280;50726;54.912;-8.392;2022-12-10T12:24:20;100248.97;;;30.58;32.19
64404;BME280;50726;54.912;-8.392;2022-12-10T12:26:58;100248.75;;;30.27;32.81
64404;BME280;50726;54.912;-8.392;2022-12-10T12:29:36;100246.81;;;30.53;32.35
64404;BME280;50726;54.912;-8.392;2022-12-10T12:32:27;100255.84;;;30.28;32.68
64404;BME280;50726;54.912;-8.392;2022-12-10T12:35:04;100256.00;;;30.35;32.64
64404;BME280;50726;54.912;-8.392;2022-12-10T12:37:44;100258.94;;;29.92;32.20
64404;BME280;50726;54.912;-8.392;2022-12-10T12:40:13;100255.53;;;29.98;32.93
64404;BME280;50726;54.912;-8.392;2022-12-10T12:42:57;100253.34;;;29.02;33.59
64404;BME280;50726;54.912;-8.392;2022-12-10T12:45:38;100253.78;;;31.11;32.52
64404;BME280;50726;54.912;-8.392;2022-12-10T12:51:38;100252.66;;;28.57;34.57
64404;BME280;50726;54.912;-8.392;2022-12-10T12:54:05;100255.25;;;28.32;34.31
64404;BME280;50726;54.912;-8.392;2022-12-10T13:02:38;100250.50;;;30.12;32.67
64404;BME280;50726;54.912;-8.392;2022-12-10T13:13:40;100234.19;;;28.62;33.83
64404;BME280;50726;54.912;-8.392;2022-12-10T13:40:26;100233.69;;;26.70;35.40
64404;BME280;50726;54.912;-8.392;2022-12-10T13:46:31;100242.22;;;26.65;35.94
64404;BME280;50726;54.912;-8.392;2022-12-10T13:48:59;100239.13;;;26.60;36.06
64404;BME280;50726;54.912;-8.392;2022-12-10T13:51:34;100241.16;;;27.41;35.22
64404;BME280;50726;54.912;-8.392;2022-12-10T13:56:58;100244.44;;;28.59;34.48
64404;BME280;50726;54.912;-8.392;2022-12-10T14:00:06;100252.25;;;28.35;34.82
64404;BME280;50726;54.912;-8.392;2022-12-10T14:08:28;100246.59;;;27.31;35.37
64404;BME280;50726;54.912;-8.392;2022-12-10T14:10:56;100247.56;;;27.30;35.32
64404;BME280;50726;54.912;-8.392;2022-12-10T14:13:37;100246.44;;;27.51;34.53
64404;BME280;50726;54.912;-8.392;2022-12-10T14:16:09;100249.28;;;27.13;34.86
64404;BME280;50726;54.912;-8.392;2022-12-10T14:18:36;100243.75;;;26.86;34.39
64404;BME280;50726;54.912;-8.392;2022-12-10T14:21:05;100245.88;;;26.92;35.17
64404;BME280;50726;54.912;-8.392;2022-12-10T14:23:33;100243.16;;;25.19;37.00
64404;BME280;50726;54.912;-8.392;2022-12-10T14:26:29;100243.13;;;26.46;35.21
64404;BME280;50726;54.912;-8.392;2022-12-10T14:29:42;100248.66;;;26.73;35.87
64404;BME280;50726;54.912;-8.392;2022-12-10T14:31:50;100243.59;;;27.52;35.57
64404;BME280;50726;54.912;-8.392;2022-12-10T14:34:24;100244.22;;;27.10;35.07
64404;BME280;50726;54.912;-8.392;2022-12-10T14:36:54;100246.38;;;27.87;34.43
64404;BME280;50726;54.912;-8.392;2022-12-10T14:39:31;100247.59;;;27.12;34.16
64404;BME280;50726;54.912;-8.392;2022-12-10T14:42:01;100246.59;;;26.29;34.92
64404;BME280;50726;54.912;-8.392;2022-12-10T14:44:29;100245.56;;;25.82;35.56
64404;BME280;50726;54.912;-8.392;2022-12-10T14:47:04;100246.53;;;27.41;34.16
64404;BME280;50726;54.912;-8.392;2022-12-10T14:49:30;100237.06;;;27.55;33.93
64404;BME280;50726;54.912;-8.392;2022-12-10T14:51:56;100240.09;;;27.33;34.03
64404;BME280;50726;54.912;-8.392;2022-12-10T14:54:25;100244.13;;;25.97;35.13
64404;BME280;50726;54.912;-8.392;2022-12-10T14:56:52;100240.72;;;24.97;36.31
64404;BME280;50726;54.912;-8.392;2022-12-10T14:59:40;100246.38;;;25.03;36.12
64404;BME280;50726;54.912;-8.392;2022-12-10T15:02:26;100256.56;;;25.79;35.69
64404;BME280;50726;54.912;-8.392;2022-12-10T15:04:53;100248.06;;;24.94;36.29